sensor_id;sensor_type;location;lat;lon;timestamp;P1;durP1;ratioP1;P2;durP2;ratioP2
14342;SDS011;7255;53.596;9.960;2022-07-18T16:50:09;7.90;;;4.22;;
14342;SDS011;7255;53.596;9.960;2022-07-18T16:52:37;5.18;;;4.50;;
14342;SDS011;7255;53.596;9.960;2022-07-18T16:55:03;7.10;;;4.72;;
14342;SDS011;7255;53.596;9.960;2022-07-18T16:57:30;6.63;;;4.60;;
14342;SDS011;7255;53.596;9.960;2022-07-18T16:59:56;5.50;;;4.60;;
14342;SDS011;7255;53.596;9.960;2022-07-18T17:02:23;5.30;;;4.50;;
14342;SDS011;7255;53.596;9.960;2022-07-18T17:04:49;5.27;;;4.50;;
14342;SDS011;7255;53.596;9.960;2022-07-18T17:07:17;5.50;;;4.72;;
14342;SDS011;7255;53.596;9.960;2022-07-18T17:09:43;5.60;;;4.70;;
14342;SDS011;7255;53.596;9.960;2022-07-18T17:12:10;5.70;;;4.68;;
14342;SDS011;7255;53.596;9.960;2022-07-18T17:14:36;5.18;;;4.68;;
14342;SDS011;7255;53.596;9.960;2022-07-18T17:17:03;5.30;;;4.80;;
14342;SDS011;7255;53.596;9.960;2022-07-18T17:19:29;5.10;;;4.70;;
14342;SDS011;7255;53.596;9.960;2022-07-18T17:21:56;5.95;;;5.07;;
14342;SDS011;7255;53.596;9.960;2022-07-18T17:24:24;5.15;;;4.65;;
14342;SDS011;7255;53.596;9.960;2022-07-18T17:26:50;5.32;;;4.78;;
14342;SDS011;7255;53.596;9.960;2022-07-18T17:29:16;5.07;;;4.57;;
14342;SDS011;7255;53.596;9.960;2022-07-18T17:31:43;5.03;;;4.62;;
14342;SDS011;7255;53.596;9.960;2022-07-18T17:34:09;5.57;;;5.00;;
14342;SDS011;7255;53.596;9.960;2022-07-18T17:36:36;5.40;;;4.87;;
14342;SDS011;7255;53.596;9.960;2022-07-18T17:39:03;5.78;;;4.62;;
14342;SDS011;7255;53.596;9.960;2022-07-18T17:41:31;5.50;;;5.00;;
14342;SDS011;7255;53.596;9.960;2022-07-18T17:43:58;5.47;;;4.90;;
14342;SDS011;7255;53.596;9.960;2022-07-18T17:46:24;4.90;;;4.45;;
14342;SDS011;7255;53.596;9.960;2022-07-18T17:48:53;6.50;;;4.90;;
14342;SDS011;7255;53.596;9.960;2022-07-18T17:51:20;5.13;;;4.63;;
14342;SDS011;7255;53.596;9.960;2022-07-18T17:53:46;5.45;;;4.82;;
14342;SDS011;7255;53.596;9.960;2022-07-18T17:56:13;5.07;;;4.60;;
14342;SDS011;7255;53.596;9.960;2022-07-18T17:58:43;5.15;;;4.75;;
14342;SDS011;7255;53.596;9.960;2022-07-18T18:01:09;5.45;;;4.95;;
14342;SDS011;7255;53.596;9.960;2022-07-18T18:03:39;6.05;;;5.45;;
14342;SDS011;7255;53.596;9.960;2022-07-18T18:06:05;6.20;;;5.20;;
14342;SDS011;7255;53.596;9.960;2022-07-18T18:08:32;5.45;;;4.95;;
14342;SDS011;7255;53.596;9.960;2022-07-18T18:10:58;5.40;;;4.82;;
14342;SDS011;7255;53.596;9.960;2022-07-18T18:13:24;6.37;;;5.15;;
14342;SDS011;7255;53.596;9.960;2022-07-18T18:15:52;5.43;;;4.93;;
14342;SDS011;7255;53.596;9.960;2022-07-18T18:18:18;5.07;;;4.68;;
14342;SDS011;7255;53.596;9.960;2022-07-18T18:20:44;4.93;;;4.53;;
14342;SDS011;7255;53.596;9.960;2022-07-18T18:23:10;5.60;;;5.10;;
14342;SDS011;7255;53.596;9.960;2022-07-18T18:25:37;6.05;;;5.35;;
14342;SDS011;7255;53.596;9.960;2022-07-18T18:28:04;6.65;;;5.57;;
14342;SDS011;7255;53.596;9.960;2022-07-18T18:30:31;5.60;;;5.10;;
14342;SDS011;7255;53.596;9.960;2022-07-18T18:32:58;5.70;;;5.10;;
14342;SDS011;7255;53.596;9.960;2022-07-18T18:35:25;5.80;;;5.25;;
14342;SDS011;7255;53.596;9.960;2022-07-18T18:37:51;5.43;;;4.93;;
14342;SDS011;7255;53.596;9.960;2022-07-18T18:40:18;5.73;;;5.23;;
14342;SDS011;7255;53.596;9.960;2022-07-18T18:42:45;9.33;;;8.53;;
14342;SDS011;7255;53.596;9.960;2022-07-18T18:45:11;13.10;;;11.80;;
14342;SDS011;7255;53.596;9.960;2022-07-18T18:47:38;11.00;;;9.90;;
14342;SDS011;7255;53.596;9.960;2022-07-18T18:50:06;10.13;;;9.13;;
14342;SDS011;7255;53.596;9.960;2022-07-18T18:52:33;8.60;;;7.80;;
14342;SDS011;7255;53.596;9.960;2022-07-18T18:55:00;7.68;;;6.97;;
14342;SDS011;7255;53.596;9.960;2022-07-18T18:57:26;6.68;;;6.00;;
14342;SDS011;7255;53.596;9.960;2022-07-18T18:59:52;6.87;;;6.00;;
14342;SDS011;7255;53.596;9.960;2022-07-18T19:02:18;6.75;;;6.05;;
14342;SDS011;7255;53.596;9.960;2022-07-18T19:04:45;7.03;;;6.32;;
14342;SDS011;7255;53.596;9.960;2022-07-18T19:07:12;6.50;;;5.90;;
14342;SDS011;7255;53.596;9.960;2022-07-18T19:09:38;6.60;;;6.00;;
14342;SDS011;7255;53.596;9.960;2022-07-18T19:12:05;6.82;;;6.12;;
14342;SDS011;7255;53.596;9.960;2022-07-18T19:14:32;7.07;;;6.37;;
14342;SDS011;7255;53.596;9.960;2022-07-18T19:16:58;6.83;;;6.23;;
14342;SDS011;7255;53.596;9.960;2022-07-18T19:19:24;6.68;;;5.97;;
14342;SDS011;7255;53.596;9.960;2022-07-18T19:21:50;6.50;;;5.90;;
14342;SDS011;7255;53.596;9.960;2022-07-18T19:24:18;6.93;;;6.20;;
14342;SDS011;7255;53.596;9.960;2022-07-18T19:26:45;6.95;;;6.28;;
14342;SDS011;7255;53.596;9.960;2022-07-18T19:29:11;6.75;;;6.15;;
14342;SDS011;7255;53.596;9.960;2022-07-18T19:31:38;6.43;;;5.87;;
14342;SDS011;7255;53.596;9.960;2022-07-18T19:34:04;7.25;;;6.35;;
14342;SDS011;7255;53.596;9.960;2022-07-18T19:36:30;6.95;;;6.28;;
14342;SDS011;7255;53.596;9.960;2022-07-18T19:38:56;6.78;;;6.18;;
14342;SDS011;7255;53.596;9.960;2022-07-18T19:41:24;7.40;;;6.60;;
14342;SDS011;7255;53.596;9.960;2022-07-18T19:43:50;6.90;;;6.20;;
14342;SDS011;7255;53.596;9.960;2022-07-18T19:46:16;7.70;;;6.30;;
14342;SDS011;7255;53.596;9.960;2022-07-18T19:48:43;7.73;;;6.70;;
14342;SDS011;7255;53.596;9.960;2022-07-18T19:51:10;7.43;;;6.73;;
14342;SDS011;7255;53.596;9.960;2022-07-18T19:53:36;7.75;;;6.78;;
14342;SDS011;7255;53.596;9.960;2022-07-18T19:56:03;6.90;;;6.20;;
14342;SDS011;7255;53.596;9.960;2022-07-18T19:58:30;7.22;;;6.50;;
14342;SDS011;7255;53.596;9.960;2022-07-18T20:00:57;6.95;;;6.30;;
14342;SDS011;7255;53.596;9.960;2022-07-18T20:03:23;8.35;;;6.10;;
14342;SDS011;7255;53.596;9.960;2022-07-18T20:05:49;7.00;;;6.30;;
14342;SDS011;7255;53.596;9.960;2022-07-18T20:08:15;7.30;;;6.43;;
14342;SDS011;7255;53.596;9.960;2022-07-18T20:10:42;6.93;;;6.33;;
14342;SDS011;7255;53.596;9.960;2022-07-18T20:13:08;6.90;;;6.20;;
14342;SDS011;7255;53.596;9.960;2022-07-18T20:15:35;7.65;;;6.32;;
14342;SDS011;7255;53.596;9.960;2022-07-18T20:18:02;7.60;;;6.90;;
14342;SDS011;7255;53.596;9.960;2022-07-18T20:20:29;7.28;;;6.62;;
14342;SDS011;7255;53.596;9.960;2022-07-18T20:22:55;7.37;;;6.60;;
14342;SDS011;7255;53.596;9.960;2022-07-18T20:25:22;8.20;;;7.40;;
14342;SDS011;7255;53.596;9.960;2022-07-18T20:27:48;7.97;;;7.25;;
14342;SDS011;7255;53.596;9.960;2022-07-18T20:30:15;8.00;;;6.87;;
14342;SDS011;7255;53.596;9.960;2022-07-18T20:32:43;7.45;;;6.65;;
14342;SDS011;7255;53.596;9.960;2022-07-18T20:35:10;7.40;;;6.70;;
14342;SDS011;7255;53.596;9.960;2022-07-18T20:37:38;7.90;;;7.10;;
14342;SDS011;7255;53.596;9.960;2022-07-18T20:40:05;7.55;;;6.80;;
14342;SDS011;7255;53.596;9.960;2022-07-18T20:42:31;7.73;;;7.03;;
14342;SDS011;7255;53.596;9.960;2022-07-18T20:44:57;7.82;;;7.03;;
14342;SDS011;7255;53.596;9.960;2022-07-18T20:47:23;7.45;;;6.75;;
14342;SDS011;7255;53.596;9.960;2022-07-18T20:49:53;8.18;;;6.53;;
14342;SDS011;7255;53.596;9.960;2022-07-18T20:52:20;8.35;;;7.00;;
14342;SDS011;7255;53.596;9.960;2022-07-18T20:54:46;7.75;;;6.70;;
14342;SDS011;7255;53.596;9.960;2022-07-18T20:57:13;7.43;;;6.72;;
14342;SDS011;7255;53.596;9.960;2022-07-18T20:59:41;7.82;;;7.03;;
14342;SDS011;7255;53.596;9.960;2022-07-18T21:02:07;9.73;;;8.73;;
14342;SDS011;7255;53.596;9.960;2022-07-18T21:04:33;8.48;;;7.57;;
14342;SDS011;7255;53.596;9.960;2022-07-18T21:07:01;8.32;;;7.55;;
14342;SDS011;7255;53.596;9.960;2022-07-18T21:09:27;8.05;;;7.25;;
14342;SDS011;7255;53.596;9.960;2022-07-18T21:11:53;8.50;;;7.60;;
14342;SDS011;7255;53.596;9.960;2022-07-18T21:14:19;7.78;;;6.97;;
14342;SDS011;7255;53.596;9.960;2022-07-18T21:17:03;7.93;;;7.18;;
14342;SDS011;7255;53.596;9.960;2022-07-18T21:19:30;7.80;;;7.00;;
14342;SDS011;7255;53.596;9.960;2022-07-18T21:21:56;8.10;;;7.30;;
14342;SDS011;7255;53.596;9.960;2022-07-18T21:24:24;8.20;;;7.40;;
14342;SDS011;7255;53.596;9.960;2022-07-18T21:26:50;7.37;;;6.67;;
14342;SDS011;7255;53.596;9.960;2022-07-18T21:29:16;7.90;;;7.18;;
14342;SDS011;7255;53.596;9.960;2022-07-18T21:31:42;8.32;;;7.45;;
14342;SDS011;7255;53.596;9.960;2022-07-18T21:34:09;9.13;;;7.32;;
14342;SDS011;7255;53.596;9.960;2022-07-18T21:36:35;7.47;;;6.78;;
14342;SDS011;7255;53.596;9.960;2022-07-18T21:39:01;7.72;;;7.03;;
14342;SDS011;7255;53.596;9.960;2022-07-18T21:41:29;7.72;;;7.03;;
14342;SDS011;7255;53.596;9.960;2022-07-18T21:43:55;7.75;;;7.05;;
14342;SDS011;7255;53.596;9.960;2022-07-18T21:46:21;7.75;;;7.05;;
14342;SDS011;7255;53.596;9.960;2022-07-18T21:48:48;8.30;;;7.43;;
14342;SDS011;7255;53.596;9.960;2022-07-18T21:51:14;8.85;;;7.37;;
14342;SDS011;7255;53.596;9.960;2022-07-18T21:53:40;8.47;;;7.63;;
14342;SDS011;7255;53.596;9.960;2022-07-18T21:56:06;9.35;;;8.35;;
14342;SDS011;7255;53.596;9.960;2022-07-18T21:58:34;8.20;;;7.37;;
14342;SDS011;7255;53.596;9.960;2022-07-18T22:01:00;8.33;;;7.57;;
14342;SDS011;7255;53.596;9.960;2022-07-18T22:03:26;8.07;;;7.35;;
14342;SDS011;7255;53.596;9.960;2022-07-18T22:05:52;8.52;;;7.60;;
14342;SDS011;7255;53.596;9.960;2022-07-18T22:08:19;8.57;;;7.82;;
14342;SDS011;7255;53.596;9.960;2022-07-18T22:10:45;8.40;;;7.55;;
14342;SDS011;7255;53.596;9.960;2022-07-18T22:13:11;8.18;;;7.37;;
14342;SDS011;7255;53.596;9.960;2022-07-18T22:15:39;8.37;;;7.57;;
14342;SDS011;7255;53.596;9.960;2022-07-18T22:18:05;8.57;;;7.78;;
14342;SDS011;7255;53.596;9.960;2022-07-18T22:20:31;9.70;;;7.93;;
14342;SDS011;7255;53.596;9.960;2022-07-18T22:22:57;8.60;;;7.63;;
14342;SDS011;7255;53.596;9.960;2022-07-18T22:25:23;8.95;;;8.05;;
14342;SDS011;7255;53.596;9.960;2022-07-18T22:27:50;8.27;;;7.43;;
14342;SDS011;7255;53.596;9.960;2022-07-18T22:30:16;8.52;;;7.72;;
14342;SDS011;7255;53.596;9.960;2022-07-18T22:32:43;8.55;;;7.65;;
14342;SDS011;7255;53.596;9.960;2022-07-18T22:35:10;8.57;;;7.60;;
14342;SDS011;7255;53.596;9.960;2022-07-18T22:37:36;8.18;;;7.37;;
14342;SDS011;7255;53.596;9.960;2022-07-18T22:40:03;7.80;;;7.10;;
14342;SDS011;7255;53.596;9.960;2022-07-18T22:42:29;8.70;;;7.87;;
14342;SDS011;7255;53.596;9.960;2022-07-18T22:44:55;8.50;;;7.62;;
14342;SDS011;7255;53.596;9.960;2022-07-18T22:47:22;8.17;;;7.37;;
14342;SDS011;7255;53.596;9.960;2022-07-18T22:49:49;8.60;;;7.80;;
14342;SDS011;7255;53.596;9.960;2022-07-18T22:52:15;8.63;;;7.73;;
14342;SDS011;7255;53.596;9.960;2022-07-18T22:54:42;9.23;;;8.32;;
14342;SDS011;7255;53.596;9.960;2022-07-18T22:57:08;9.45;;;8.50;;
14342;SDS011;7255;53.596;9.960;2022-07-18T22:59:34;8.60;;;7.80;;
14342;SDS011;7255;53.596;9.960;2022-07-18T23:02:01;9.20;;;8.30;;
14342;SDS011;7255;53.596;9.960;2022-07-18T23:04:27;8.82;;;7.97;;
14342;SDS011;7255;53.596;9.960;2022-07-18T23:06:55;9.30;;;8.40;;
14342;SDS011;7255;53.596;9.960;2022-07-18T23:09:21;9.25;;;8.27;;
14342;SDS011;7255;53.596;9.960;2022-07-18T23:11:47;9.27;;;8.38;;
14342;SDS011;7255;53.596;9.960;2022-07-18T23:14:13;9.13;;;8.23;;
14342;SDS011;7255;53.596;9.960;2022-07-18T23:16:40;9.00;;;8.10;;
14342;SDS011;7255;53.596;9.960;2022-07-18T23:19:06;8.87;;;8.07;;
14342;SDS011;7255;53.596;9.960;2022-07-18T23:21:32;9.20;;;8.30;;
14342;SDS011;7255;53.596;9.960;2022-07-18T23:24:00;9.45;;;8.52;;
14342;SDS011;7255;53.596;9.960;2022-07-18T23:26:26;9.10;;;8.20;;
14342;SDS011;7255;53.596;9.960;2022-07-18T23:28:52;9.57;;;8.67;;
14342;SDS011;7255;53.596;9.960;2022-07-18T23:31:18;9.73;;;8.73;;
14342;SDS011;7255;53.596;9.960;2022-07-18T23:33:45;9.85;;;8.95;;
14342;SDS011;7255;53.596;9.960;2022-07-18T23:36:11;9.70;;;8.80;;
14342;SDS011;7255;53.596;9.960;2022-07-18T23:38:37;9.13;;;8.23;;
14342;SDS011;7255;53.596;9.960;2022-07-18T23:41:05;9.30;;;8.38;;
14342;SDS011;7255;53.596;9.960;2022-07-18T23:43:31;9.27;;;8.43;;
14342;SDS011;7255;53.596;9.960;2022-07-18T23:45:57;9.38;;;8.48;;
14342;SDS011;7255;53.596;9.960;2022-07-18T23:48:24;9.45;;;8.55;;
14342;SDS011;7255;53.596;9.960;2022-07-18T23:50:50;9.68;;;8.77;;
14342;SDS011;7255;53.596;9.960;2022-07-18T23:53:16;9.20;;;8.30;;
14342;SDS011;7255;53.596;9.960;2022-07-18T23:55:42;10.02;;;8.95;;
14342;SDS011;7255;53.596;9.960;2022-07-18T23:58:10;9.70;;;8.80;;
